sensor_id;sensor_type;location;lat;lon;timestamp;pressure;altitude;pressure_sealevel;temperature;humidity
60725;BME280;59881;36.722;-4.462;2023-01-15T00:01:00;101733.13;;;9.99;95.60
60725;BME280;59881;36.722;-4.462;2023-01-15T00:03:27;101702.41;;;9.80;95.52
60725;BME280;59881;36.722;-4.462;2023-01-15T00:05:53;101605.13;;;9.23;95.33
60725;BME280;59881;36.722;-4.462;2023-01-15T00:08:19;100867.00;;;4.77;94.45
60725;BME280;59881;36.722;-4.462;2023-01-15T00:10:44;101521.97;;;8.83;94.58
60725;BME280;59881;36.722;-4.462;2023-01-15T00:13:10;101620.03;;;9.42;94.35
60725;BME280;59881;36.722;-4.462;2023-01-15T00:15:36;101581.00;;;9.32;93.80
60725;BME280;59881;36.722;-4.462;2023-01-15T00:18:02;101213.59;;;6.97;93.60
60725;BME280;59881;36.722;-4.462;2023-01-15T00:20:27;100917.91;;;4.89;93.19
60725;BME280;59881;36.722;-4.462;2023-01-15T00:22:53;101360.69;;;7.31;92.96
60725;BME280;59881;36.722;-4.462;2023-01-15T00:25:19;101726.09;;;9.80;93.27
60725;BME280;59881;36.722;-4.462;2023-01-15T00:28:04;101704.41;;;9.94;93.05
60725;BME280;59881;36.722;-4.462;2023-01-15T00:30:29;101634.66;;;9.47;92.83
60725;BME280;59881;36.722;-4.462;2023-01-15T00:32:56;101674.84;;;9.70;92.99
60725;BME280;59881;36.722;-4.462;2023-01-15T00:35:23;101645.88;;;9.51;92.76
60725;BME280;59881;36.722;-4.462;2023-01-15T00:37:49;101612.50;;;9.15;92.89
60725;BME280;59881;36.722;-4.462;2023-01-15T00:40:16;101702.69;;;9.74;92.80
60725;BME280;59881;36.722;-4.462;2023-01-15T00:42:42;101330.25;;;7.47;92.55
60725;BME280;59881;36.722;-4.462;2023-01-15T00:45:09;101626.56;;;9.33;92.83
60725;BME280;59881;36.722;-4.462;2023-01-15T00:47:36;101938.63;;;9.75;93.39
60725;BME280;59881;36.722;-4.462;2023-01-15T00:50:03;101617.03;;;9.30;92.94
60725;BME280;59881;36.722;-4.462;2023-01-15T00:52:29;101693.88;;;9.75;92.51
60725;BME280;59881;36.722;-4.462;2023-01-15T00:54:55;101693.03;;;9.74;92.55
60725;BME280;59881;36.722;-4.462;2023-01-15T00:57:20;101690.41;;;9.74;92.50
60725;BME280;59881;36.722;-4.462;2023-01-15T00:59:46;101517.91;;;8.76;92.35
60725;BME280;59881;36.722;-4.462;2023-01-15T01:02:11;101673.03;;;9.70;92.64
60725;BME280;59881;36.722;-4.462;2023-01-15T01:04:37;101703.47;;;9.76;92.46
60725;BME280;59881;36.722;-4.462;2023-01-15T01:07:03;101643.81;;;9.58;91.75
60725;BME280;59881;36.722;-4.462;2023-01-15T01:09:28;101673.66;;;9.76;91.38
60725;BME280;59881;36.722;-4.462;2023-01-15T01:11:54;101673.81;;;9.72;91.53
60725;BME280;59881;36.722;-4.462;2023-01-15T01:14:19;101674.91;;;9.68;91.05
60725;BME280;59881;36.722;-4.462;2023-01-15T01:16:45;101551.00;;;8.99;91.12
60725;BME280;59881;36.722;-4.462;2023-01-15T01:19:21;101666.16;;;9.68;91.33
60725;BME280;59881;36.722;-4.462;2023-01-15T01:21:48;101568.00;;;9.10;90.94
60725;BME280;59881;36.722;-4.462;2023-01-15T01:24:16;101599.75;;;9.25;90.71
60725;BME280;59881;36.722;-4.462;2023-01-15T01:26:42;101604.00;;;9.27;90.70
60725;BME280;59881;36.722;-4.462;2023-01-15T01:29:12;101662.97;;;9.61;90.41
60725;BME280;59881;36.722;-4.462;2023-01-15T01:31:38;101555.50;;;8.97;90.24
60725;BME280;59881;36.722;-4.462;2023-01-15T01:34:03;101600.53;;;9.27;90.14
60725;BME280;59881;36.722;-4.462;2023-01-15T01:36:32;101665.50;;;9.63;90.01
60725;BME280;59881;36.722;-4.462;2023-01-15T01:38:59;101649.31;;;9.53;89.83
60725;BME280;59881;36.722;-4.462;2023-01-15T01:41:25;101613.41;;;9.33;89.78
60725;BME280;59881;36.722;-4.462;2023-01-15T01:43:54;101605.81;;;9.27;89.46
60725;BME280;59881;36.722;-4.462;2023-01-15T01:46:20;101675.97;;;9.45;89.46
60725;BME280;59881;36.722;-4.462;2023-01-15T01:48:48;101576.53;;;9.16;89.60
60725;BME280;59881;36.722;-4.462;2023-01-15T01:51:15;101661.66;;;9.70;89.27
60725;BME280;59881;36.722;-4.462;2023-01-15T01:53:41;101419.69;;;8.21;89.41
60725;BME280;59881;36.722;-4.462;2023-01-15T01:56:09;101249.28;;;7.20;88.87
60725;BME280;59881;36.722;-4.462;2023-01-15T01:58:36;101637.09;;;9.52;89.05
60725;BME280;59881;36.722;-4.462;2023-01-15T02:01:02;101261.22;;;6.87;89.09
60725;BME280;59881;36.722;-4.462;2023-01-15T02:03:34;101669.00;;;9.63;89.06
60725;BME280;59881;36.722;-4.462;2023-01-15T02:06:03;101669.22;;;9.59;89.13
60725;BME280;59881;36.722;-4.462;2023-01-15T02:08:32;101332.63;;;6.90;88.42
60725;BME280;59881;36.722;-4.462;2023-01-15T02:11:00;101345.94;;;6.86;88.29
60725;BME280;59881;36.722;-4.462;2023-01-15T02:13:40;101680.44;;;9.43;88.49
60725;BME280;59881;36.722;-4.462;2023-01-15T02:19:31;101672.91;;;9.36;88.73
60725;BME280;59881;36.722;-4.462;2023-01-15T02:25:05;101674.75;;;9.33;88.57
60725;BME280;59881;36.722;-4.462;2023-01-15T02:27:36;101669.53;;;9.32;88.45
60725;BME280;59881;36.722;-4.462;2023-01-15T02:30:20;101659.22;;;9.27;88.10
60725;BME280;59881;36.722;-4.462;2023-01-15T02:32:52;101662.16;;;9.21;88.21
60725;BME280;59881;36.722;-4.462;2023-01-15T02:35:46;101596.41;;;8.83;88.22
60725;BME280;59881;36.722;-4.462;2023-01-15T02:38:16;101655.19;;;9.20;88.10
60725;BME280;59881;36.722;-4.462;2023-01-15T02:40:44;101425.72;;;7.84;88.42
60725;BME280;59881;36.722;-4.462;2023-01-15T02:43:12;101668.06;;;9.26;88.27
60725;BME280;59881;36.722;-4.462;2023-01-15T02:45:41;101659.31;;;9.26;87.89
60725;BME280;59881;36.722;-4.462;2023-01-15T02:48:11;101747.22;;;9.20;87.44
60725;BME280;59881;36.722;-4.462;2023-01-15T02:50:56;101786.13;;;9.12;86.97
60725;BME280;59881;36.722;-4.462;2023-01-15T02:53:26;101651.34;;;9.08;87.82
60725;BME280;59881;36.722;-4.462;2023-01-15T02:55:57;101656.53;;;9.10;87.79
60725;BME280;59881;36.722;-4.462;2023-01-15T02:58:27;101622.53;;;8.86;87.80
60725;BME280;59881;36.722;-4.462;2023-01-15T03:00:55;101135.25;;;5.87;87.55
60725;BME280;59881;36.722;-4.462;2023-01-15T03:03:37;101654.56;;;9.15;88.66
60725;BME280;59881;36.722;-4.462;2023-01-15T03:06:28;101655.97;;;9.22;88.72
60725;BME280;59881;36.722;-4.462;2023-01-15T03:08:57;101585.03;;;8.83;88.60
60725;BME280;59881;36.722;-4.462;2023-01-15T03:11:23;101497.16;;;8.30;88.52
60725;BME280;59881;36.722;-4.462;2023-01-15T03:16:38;101659.31;;;9.26;88.22
60725;BME280;59881;36.722;-4.462;2023-01-15T03:19:26;101650.78;;;9.21;88.40
60725;BME280;59881;36.722;-4.462;2023-01-15T03:24:48;101649.41;;;9.12;88.85
60725;BME280;59881;36.722;-4.462;2023-01-15T03:27:15;101650.34;;;9.11;89.50
60725;BME280;59881;36.722;-4.462;2023-01-15T03:29:44;101537.28;;;8.34;89.40
60725;BME280;59881;36.722;-4.462;2023-01-15T03:32:10;101755.75;;;9.05;89.76
60725;BME280;59881;36.722;-4.462;2023-01-15T03:34:45;101650.63;;;9.05;89.98
60725;BME280;59881;36.722;-4.462;2023-01-15T03:37:12;101645.50;;;9.02;90.18
60725;BME280;59881;36.722;-4.462;2023-01-15T03:39:38;101643.94;;;8.98;90.39
60725;BME280;59881;36.722;-4.462;2023-01-15T03:42:14;101539.09;;;8.32;90.65
60725;BME280;59881;36.722;-4.462;2023-01-15T03:50:43;101639.00;;;9.10;92.43
60725;BME280;59881;36.722;-4.462;2023-01-15T03:55:54;101603.94;;;8.91;92.92
60725;BME280;59881;36.722;-4.462;2023-01-15T03:58:28;101625.19;;;9.05;93.30
60725;BME280;59881;36.722;-4.462;2023-01-15T04:00:57;101204.53;;;6.43;92.86
60725;BME280;59881;36.722;-4.462;2023-01-15T04:03:25;101508.44;;;8.32;93.51
60725;BME280;59881;36.722;-4.462;2023-01-15T04:05:53;101616.13;;;8.92;93.96
60725;BME280;59881;36.722;-4.462;2023-01-15T04:08:21;101542.22;;;8.41;94.13
60725;BME280;59881;36.722;-4.462;2023-01-15T04:10:54;101603.31;;;8.86;94.73
60725;BME280;59881;36.722;-4.462;2023-01-15T04:13:21;101461.78;;;7.99;95.03
60725;BME280;59881;36.722;-4.462;2023-01-15T04:15:47;101437.69;;;7.90;95.13
60725;BME280;59881;36.722;-4.462;2023-01-15T04:18:12;101602.56;;;8.82;95.55
60725;BME280;59881;36.722;-4.462;2023-01-15T04:20:38;101528.13;;;7.81;95.67
60725;BME280;59881;36.722;-4.462;2023-01-15T04:23:03;101160.91;;;6.21;95.87
60725;BME280;59881;36.722;-4.462;2023-01-15T04:25:29;101588.59;;;8.82;96.41
60725;BME280;59881;36.722;-4.462;2023-01-15T04:27:54;101523.88;;;8.40;96.88
60725;BME280;59881;36.722;-4.462;2023-01-15T04:30:20;101203.31;;;6.52;96.91
60725;BME280;59881;36.722;-4.462;2023-01-15T04:32:49;101583.97;;;8.87;97.55
60725;BME280;59881;36.722;-4.462;2023-01-15T04:35:16;101413.19;;;7.91;97.78
60725;BME280;59881;36.722;-4.462;2023-01-15T04:37:41;101583.63;;;8.95;98.33
60725;BME280;59881;36.722;-4.462;2023-01-15T04:40:08;101581.69;;;8.98;98.37
60725;BME280;59881;36.722;-4.462;2023-01-15T04:42:34;101550.97;;;8.81;98.69
60725;BME280;59881;36.722;-4.462;2023-01-15T04:45:31;101449.63;;;8.36;99.02
60725;BME280;59881;36.722;-4.462;2023-01-15T04:47:57;101587.88;;;9.16;99.41
60725;BME280;59881;36.722;-4.462;2023-01-15T04:50:22;101466.34;;;8.54;99.27
60725;BME280;59881;36.722;-4.462;2023-01-15T04:52:49;101522.31;;;8.94;99.45
60725;BME280;59881;36.722;-4.462;2023-01-15T04:55:14;101425.53;;;8.28;98.79
60725;BME280;59881;36.722;-4.462;2023-01-15T04:57:40;101524.09;;;8.94;98.99
60725;BME280;59881;36.722;-4.462;2023-01-15T05:00:06;101058.53;;;6.09;98.50
60725;BME280;59881;36.722;-4.462;2023-01-15T05:02:32;101462.81;;;8.55;98.78
60725;BME280;59881;36.722;-4.462;2023-01-15T05:04:57;101510.03;;;8.76;98.66
60725;BME280;59881;36.722;-4.462;2023-01-15T05:07:22;101515.34;;;8.74;98.33
60725;BME280;59881;36.722;-4.462;2023-01-15T05:09:48;101577.03;;;9.05;98.28
60725;BME280;59881;36.722;-4.462;2023-01-15T05:12:15;101316.16;;;7.50;98.48
60725;BME280;59881;36.722;-4.462;2023-01-15T05:14:41;101573.59;;;9.03;99.27
60725;BME280;59881;36.722;-4.462;2023-01-15T05:17:06;101511.16;;;8.70;99.26
60725;BME280;59881;36.722;-4.462;2023-01-15T05:19:32;101453.25;;;8.34;99.34
60725;BME280;59881;36.722;-4.462;2023-01-15T05:21:57;101243.78;;;7.06;99.31
60725;BME280;59881;36.722;-4.462;2023-01-15T05:24:23;101292.91;;;7.42;99.31
60725;BME280;59881;36.722;-4.462;2023-01-15T05:26:48;101307.50;;;7.47;99.59
60725;BME280;59881;36.722;-4.462;2023-01-15T05:29:14;101472.75;;;8.48;99.64
60725;BME280;59881;36.722;-4.462;2023-01-15T05:31:40;101568.22;;;9.06;99.48
60725;BME280;59881;36.722;-4.462;2023-01-15T05:34:06;101575.19;;;9.07;99.28
60725;BME280;59881;36.722;-4.462;2023-01-15T05:36:32;101544.28;;;8.93;99.39
60725;BME280;59881;36.722;-4.462;2023-01-15T05:38:58;101568.00;;;9.10;99.57
60725;BME280;59881;36.722;-4.462;2023-01-15T05:41:26;101570.69;;;9.09;99.15
60725;BME280;59881;36.722;-4.462;2023-01-15T05:44:12;101572.28;;;9.13;99.04
60725;BME280;59881;36.722;-4.462;2023-01-15T05:46:39;101561.59;;;9.16;99.32
60725;BME280;59881;36.722;-4.462;2023-01-15T05:49:07;101611.41;;;8.81;99.18
60725;BME280;59881;36.722;-4.462;2023-01-15T05:51:34;101528.13;;;9.01;98.99
60725;BME280;59881;36.722;-4.462;2023-01-15T05:54:00;101696.72;;;9.32;98.71
60725;BME280;59881;36.722;-4.462;2023-01-15T05:56:26;101319.78;;;7.86;98.25
60725;BME280;59881;36.722;-4.462;2023-01-15T05:58:52;101578.50;;;9.48;97.43
60725;BME280;59881;36.722;-4.462;2023-01-15T06:01:18;101567.91;;;9.50;96.81
60725;BME280;59881;36.722;-4.462;2023-01-15T06:03:43;101461.53;;;8.83;96.27
60725;BME280;59881;36.722;-4.462;2023-01-15T06:06:16;101082.94;;;6.50;95.46
60725;BME280;59881;36.722;-4.462;2023-01-15T06:08:42;101548.88;;;9.26;95.10
60725;BME280;59881;36.722;-4.462;2023-01-15T06:11:07;101465.16;;;8.80;94.69
60725;BME280;59881;36.722;-4.462;2023-01-15T06:13:33;101550.81;;;9.22;94.96
60725;BME280;59881;36.722;-4.462;2023-01-15T06:16:00;101561.94;;;9.27;94.92
60725;BME280;59881;36.722;-4.462;2023-01-15T06:18:25;101602.25;;;8.90;94.94
60725;BME280;59881;36.722;-4.462;2023-01-15T06:20:51;101549.50;;;9.12;95.29
60725;BME280;59881;36.722;-4.462;2023-01-15T06:23:17;101198.56;;;6.39;95.09
60725;BME280;59881;36.722;-4.462;2023-01-15T06:25:43;101559.47;;;9.24;95.55
60725;BME280;59881;36.722;-4.462;2023-01-15T06:28:09;101602.16;;;9.29;95.60
60725;BME280;59881;36.722;-4.462;2023-01-15T06:30:36;101700.03;;;9.36;95.70
60725;BME280;59881;36.722;-4.462;2023-01-15T06:33:03;101549.84;;;9.42;95.41
60725;BME280;59881;36.722;-4.462;2023-01-15T06:35:29;101555.72;;;9.47;95.08
60725;BME280;59881;36.722;-4.462;2023-01-15T06:37:54;101560.03;;;9.50;94.88
60725;BME280;59881;36.722;-4.462;2023-01-15T06:40:20;101614.38;;;9.11;94.63
60725;BME280;59881;36.722;-4.462;2023-01-15T06:42:46;101451.03;;;8.83;94.56
60725;BME280;59881;36.722;-4.462;2023-01-15T06:45:36;101649.59;;;9.47;94.60
60725;BME280;59881;36.722;-4.462;2023-01-15T06:48:21;101563.72;;;9.46;94.19
60725;BME280;59881;36.722;-4.462;2023-01-15T06:50:47;101453.09;;;8.76;93.90
60725;BME280;59881;36.722;-4.462;2023-01-15T06:53:12;101074.19;;;6.31;93.94
60725;BME280;59881;36.722;-4.462;2023-01-15T06:55:38;101152.28;;;7.01;94.05
60725;BME280;59881;36.722;-4.462;2023-01-15T06:58:04;101576.50;;;9.53;94.00
60725;BME280;59881;36.722;-4.462;2023-01-15T07:00:29;101505.72;;;9.13;93.52
60725;BME280;59881;36.722;-4.462;2023-01-15T07:02:58;101584.16;;;9.58;93.24
60725;BME280;59881;36.722;-4.462;2023-01-15T07:05:23;101508.97;;;9.18;93.12
60725;BME280;59881;36.722;-4.462;2023-01-15T07:07:49;101581.41;;;9.61;92.74
60725;BME280;59881;36.722;-4.462;2023-01-15T07:10:14;101555.91;;;9.44;92.68
60725;BME280;59881;36.722;-4.462;2023-01-15T07:12:40;101495.53;;;9.05;92.34
60725;BME280;59881;36.722;-4.462;2023-01-15T07:15:06;101793.03;;;9.54;92.29
60725;BME280;59881;36.722;-4.462;2023-01-15T07:17:31;101522.25;;;9.15;91.88
60725;BME280;59881;36.722;-4.462;2023-01-15T07:19:57;101555.56;;;9.33;91.91
60725;BME280;59881;36.722;-4.462;2023-01-15T07:22:23;101557.47;;;9.29;91.71
60725;BME280;59881;36.722;-4.462;2023-01-15T07:24:49;101589.09;;;9.47;91.39
60725;BME280;59881;36.722;-4.462;2023-01-15T07:27:14;101584.66;;;9.47;91.40
60725;BME280;59881;36.722;-4.462;2023-01-15T07:29:39;101224.09;;;7.37;91.10
60725;BME280;59881;36.722;-4.462;2023-01-15T07:32:05;101134.56;;;6.88;90.01
60725;BME280;59881;36.722;-4.462;2023-01-15T07:34:30;101497.38;;;9.22;89.70
60725;BME280;59881;36.722;-4.462;2023-01-15T07:36:56;101285.88;;;8.01;89.20
60725;BME280;59881;36.722;-4.462;2023-01-15T07:39:21;101566.50;;;9.97;88.83
60725;BME280;59881;36.722;-4.462;2023-01-15T07:41:47;101512.91;;;9.80;87.32
60725;BME280;59881;36.722;-4.462;2023-01-15T07:44:31;101558.50;;;10.68;86.06
60725;BME280;59881;36.722;-4.462;2023-01-15T07:47:21;101116.28;;;10.44;82.46
60725;BME280;59881;36.722;-4.462;2023-01-15T07:50:22;101541.31;;;15.38;74.82
60725;BME280;59881;36.722;-4.462;2023-01-15T07:52:48;101531.78;;;16.75;65.90
60725;BME280;59881;36.722;-4.462;2023-01-15T07:55:14;101521.56;;;17.90;59.07
60725;BME280;59881;36.722;-4.462;2023-01-15T07:57:40;101509.75;;;18.96;53.85
60725;BME280;59881;36.722;-4.462;2023-01-15T08:00:15;101512.78;;;20.00;49.94
60725;BME280;59881;36.722;-4.462;2023-01-15T08:02:43;101525.78;;;20.79;47.30
60725;BME280;59881;36.722;-4.462;2023-01-15T08:05:10;101099.47;;;18.87;44.85
60725;BME280;59881;36.722;-4.462;2023-01-15T08:07:40;101531.41;;;22.29;42.90
60725;BME280;59881;36.722;-4.462;2023-01-15T08:10:07;101286.97;;;21.54;40.54
60725;BME280;59881;36.722;-4.462;2023-01-15T08:12:33;101598.31;;;24.17;38.41
60725;BME280;59881;36.722;-4.462;2023-01-15T08:15:17;101520.03;;;24.91;36.26
60725;BME280;59881;36.722;-4.462;2023-01-15T08:17:44;101197.19;;;23.55;35.22
60725;BME280;59881;36.722;-4.462;2023-01-15T08:22:40;101559.13;;;26.78;31.98
60725;BME280;59881;36.722;-4.462;2023-01-15T08:25:07;101612.38;;;27.14;31.21
60725;BME280;59881;36.722;-4.462;2023-01-15T08:27:34;101605.34;;;27.71;30.76
60725;BME280;59881;36.722;-4.462;2023-01-15T08:30:00;101518.50;;;28.22;29.49
60725;BME280;59881;36.722;-4.462;2023-01-15T08:32:25;101437.63;;;28.13;28.41
60725;BME280;59881;36.722;-4.462;2023-01-15T08:34:51;101581.22;;;28.82;28.04
60725;BME280;59881;36.722;-4.462;2023-01-15T08:37:16;101579.09;;;29.19;28.50
60725;BME280;59881;36.722;-4.462;2023-01-15T08:39:42;101312.72;;;27.88;28.43
60725;BME280;59881;36.722;-4.462;2023-01-15T08:42:07;101544.34;;;29.76;27.51
60725;BME280;59881;36.722;-4.462;2023-01-15T08:44:33;101641.13;;;30.37;26.50
60725;BME280;59881;36.722;-4.462;2023-01-15T08:46:59;101597.97;;;30.74;26.00
60725;BME280;59881;36.722;-4.462;2023-01-15T08:49:25;101580.69;;;31.13;25.48
60725;BME280;59881;36.722;-4.462;2023-01-15T08:51:50;101577.16;;;31.45;25.10
60725;BME280;59881;36.722;-4.462;2023-01-15T08:54:19;101611.56;;;31.96;24.46
60725;BME280;59881;36.722;-4.462;2023-01-15T08:56:45;101583.44;;;32.27;24.11
60725;BME280;59881;36.722;-4.462;2023-01-15T08:59:11;101497.03;;;32.28;23.31
60725;BME280;59881;36.722;-4.462;2023-01-15T09:01:37;101602.31;;;33.51;22.57
60725;BME280;59881;36.722;-4.462;2023-01-15T09:04:02;101550.47;;;33.63;22.30
60725;BME280;59881;36.722;-4.462;2023-01-15T09:06:30;101621.22;;;34.54;21.60
60725;BME280;59881;36.722;-4.462;2023-01-15T09:08:58;101560.56;;;34.57;21.37
60725;BME280;59881;36.722;-4.462;2023-01-15T09:11:24;101634.91;;;35.30;20.84
60725;BME280;59881;36.722;-4.462;2023-01-15T09:13:49;101605.78;;;35.69;20.72
60725;BME280;59881;36.722;-4.462;2023-01-15T09:16:16;101611.59;;;36.23;19.50
60725;BME280;59881;36.722;-4.462;2023-01-15T09:18:42;101623.31;;;36.75;19.47
60725;BME280;59881;36.722;-4.462;2023-01-15T09:21:08;101337.13;;;35.25;18.99
60725;BME280;59881;36.722;-4.462;2023-01-15T09:23:34;101599.09;;;36.94;19.37
60725;BME280;59881;36.722;-4.462;2023-01-15T09:26:01;101583.13;;;37.40;18.67
60725;BME280;59881;36.722;-4.462;2023-01-15T09:28:29;101600.66;;;37.93;18.22
60725;BME280;59881;36.722;-4.462;2023-01-15T09:30:55;101621.81;;;38.30;18.29
60725;BME280;59881;36.722;-4.462;2023-01-15T09:33:21;101633.19;;;38.97;17.27
60725;BME280;59881;36.722;-4.462;2023-01-15T09:35:47;101635.50;;;39.30;16.94
60725;BME280;59881;36.722;-4.462;2023-01-15T09:38:14;101611.44;;;39.05;17.16
60725;BME280;59881;36.722;-4.462;2023-01-15T09:40:45;101628.66;;;39.59;16.19
60725;BME280;59881;36.722;-4.462;2023-01-15T09:46:19;101670.06;;;40.30;15.92
60725;BME280;59881;36.722;-4.462;2023-01-15T09:49:01;101629.41;;;40.57;15.82
60725;BME280;59881;36.722;-4.462;2023-01-15T09:57:18;101622.66;;;42.07;14.54
60725;BME280;59881;36.722;-4.462;2023-01-15T09:59:48;101607.69;;;42.61;14.16
60725;BME280;59881;36.722;-4.462;2023-01-15T10:02:19;101629.88;;;43.23;13.70
60725;BME280;59881;36.722;-4.462;2023-01-15T10:04:50;101404.34;;;42.24;13.54
60725;BME280;59881;36.722;-4.462;2023-01-15T10:07:28;101646.13;;;44.14;13.25
60725;BME280;59881;36.722;-4.462;2023-01-15T10:10:09;101651.50;;;44.80;12.75
60725;BME280;59881;36.722;-4.462;2023-01-15T10:12:37;101656.03;;;44.62;12.16
60725;BME280;59881;36.722;-4.462;2023-01-15T10:17:45;101657.34;;;44.92;12.44
60725;BME280;59881;36.722;-4.462;2023-01-15T10:23:47;101664.25;;;46.61;11.52
60725;BME280;59881;36.722;-4.462;2023-01-15T10:25:46;101665.06;;;46.62;11.11
60725;BME280;59881;36.722;-4.462;2023-01-15T10:28:29;101621.44;;;45.77;11.40
60725;BME280;59881;36.722;-4.462;2023-01-15T10:31:06;101670.66;;;45.32;12.26
60725;BME280;59881;36.722;-4.462;2023-01-15T10:44:58;101649.41;;;48.26;9.89
60725;BME280;59881;36.722;-4.462;2023-01-15T10:47:31;101605.16;;;48.67;10.22
60725;BME280;59881;36.722;-4.462;2023-01-15T10:50:00;101642.38;;;49.22;9.57
60725;BME280;59881;36.722;-4.462;2023-01-15T10:55:05;101658.53;;;45.95;11.02
60725;BME280;59881;36.722;-4.462;2023-01-15T10:57:55;101661.88;;;45.02;11.16
60725;BME280;59881;36.722;-4.462;2023-01-15T11:00:24;101620.16;;;45.61;11.58
60725;BME280;59881;36.722;-4.462;2023-01-15T11:03:00;101622.34;;;46.35;10.73
60725;BME280;59881;36.722;-4.462;2023-01-15T11:05:33;101654.88;;;42.75;12.53
60725;BME280;59881;36.722;-4.462;2023-01-15T11:08:02;101682.81;;;35.03;18.43
60725;BME280;59881;36.722;-4.462;2023-01-15T11:10:28;101277.69;;;27.16;24.03
60725;BME280;59881;36.722;-4.462;2023-01-15T11:12:58;101694.00;;;26.73;27.28
60725;BME280;59881;36.722;-4.462;2023-01-15T11:15:49;101346.97;;;22.72;29.29
60725;BME280;59881;36.722;-4.462;2023-01-15T11:18:41;101698.03;;;23.83;31.80
60725;BME280;59881;36.722;-4.462;2023-01-15T11:21:27;100832.44;;;18.05;32.82
60725;BME280;59881;36.722;-4.462;2023-01-15T11:23:55;101667.41;;;22.73;33.25
60725;BME280;59881;36.722;-4.462;2023-01-15T11:26:25;101630.41;;;22.33;33.87
60725;BME280;59881;36.722;-4.462;2023-01-15T11:28:52;101701.41;;;22.38;35.32
60725;BME280;59881;36.722;-4.462;2023-01-15T11:31:19;101193.69;;;19.07;36.12
60725;BME280;59881;36.722;-4.462;2023-01-15T11:33:58;101334.81;;;19.78;36.38
60725;BME280;59881;36.722;-4.462;2023-01-15T11:36:26;101692.81;;;21.81;35.82
60725;BME280;59881;36.722;-4.462;2023-01-15T11:38:52;101615.69;;;21.09;36.09
60725;BME280;59881;36.722;-4.462;2023-01-15T11:43:56;101780.69;;;21.02;36.48
60725;BME280;59881;36.722;-4.462;2023-01-15T11:46:40;101695.88;;;20.83;36.92
60725;BME280;59881;36.722;-4.462;2023-01-15T11:49:25;101701.97;;;20.66;37.38
60725;BME280;59881;36.722;-4.462;2023-01-15T11:52:11;101788.75;;;20.54;37.86
60725;BME280;59881;36.722;-4.462;2023-01-15T11:54:41;101685.34;;;20.33;38.15
60725;BME280;59881;36.722;-4.462;2023-01-15T11:57:07;101682.00;;;20.21;38.28
60725;BME280;59881;36.722;-4.462;2023-01-15T11:59:34;101684.50;;;20.13;39.11
60725;BME280;59881;36.722;-4.462;2023-01-15T12:02:41;101680.69;;;19.96;39.13
60725;BME280;59881;36.722;-4.462;2023-01-15T12:05:21;101656.81;;;19.54;39.30
60725;BME280;59881;36.722;-4.462;2023-01-15T12:07:50;101638.63;;;19.48;39.79
60725;BME280;59881;36.722;-4.462;2023-01-15T12:13:22;101664.81;;;19.54;40.88
60725;BME280;59881;36.722;-4.462;2023-01-15T12:18:58;101653.13;;;19.46;40.71
60725;BME280;59881;36.722;-4.462;2023-01-15T12:24:45;101645.09;;;19.36;41.61
60725;BME280;59881;36.722;-4.462;2023-01-15T12:27:18;101639.31;;;19.31;41.82
60725;BME280;59881;36.722;-4.462;2023-01-15T12:32:47;101636.72;;;19.19;41.88
60725;BME280;59881;36.722;-4.462;2023-01-15T12:35:28;101622.94;;;19.14;41.90
60725;BME280;59881;36.722;-4.462;2023-01-15T12:41:11;101143.09;;;16.25;41.89
60725;BME280;59881;36.722;-4.462;2023-01-15T12:43:42;101558.88;;;18.84;41.90
60725;BME280;59881;36.722;-4.462;2023-01-15T12:46:29;100833.81;;;13.90;41.65
60725;BME280;59881;36.722;-4.462;2023-01-15T12:52:09;101675.03;;;18.99;42.03
60725;BME280;59881;36.722;-4.462;2023-01-15T12:54:48;101600.03;;;19.12;42.05
60725;BME280;59881;36.722;-4.462;2023-01-15T12:57:30;101153.56;;;16.38;42.54
60725;BME280;59881;36.722;-4.462;2023-01-15T13:03:37;101555.31;;;18.73;42.80
60725;BME280;59881;36.722;-4.462;2023-01-15T13:05:58;101586.38;;;19.05;42.80
60725;BME280;59881;36.722;-4.462;2023-01-15T13:11:23;101552.34;;;18.97;43.06
60725;BME280;59881;36.722;-4.462;2023-01-15T13:13:49;101577.97;;;19.19;42.87
60725;BME280;59881;36.722;-4.462;2023-01-15T13:16:32;101363.09;;;18.04;42.99
60725;BME280;59881;36.722;-4.462;2023-01-15T13:19:20;101574.22;;;19.41;42.88
60725;BME280;59881;36.722;-4.462;2023-01-15T13:21:48;101542.88;;;19.34;42.41
60725;BME280;59881;36.722;-4.462;2023-01-15T13:27:38;101566.75;;;19.26;43.35
60725;BME280;59881;36.722;-4.462;2023-01-15T13:30:20;101572.91;;;19.16;43.57
60725;BME280;59881;36.722;-4.462;2023-01-15T13:32:54;101207.53;;;17.03;43.52
60725;BME280;59881;36.722;-4.462;2023-01-15T13:35:36;101574.91;;;19.34;43.48
60725;BME280;59881;36.722;-4.462;2023-01-15T13:38:05;101566.19;;;19.41;43.35
60725;BME280;59881;36.722;-4.462;2023-01-15T13:40:41;101228.56;;;16.73;43.46
60725;BME280;59881;36.722;-4.462;2023-01-15T13:43:38;101571.28;;;19.44;43.67
60725;BME280;59881;36.722;-4.462;2023-01-15T13:46:18;101656.38;;;19.39;43.89
60725;BME280;59881;36.722;-4.462;2023-01-15T13:48:48;101587.88;;;19.38;44.07
60725;BME280;59881;36.722;-4.462;2023-01-15T13:51:32;101590.97;;;19.43;44.52
60725;BME280;59881;36.722;-4.462;2023-01-15T13:54:12;101644.25;;;19.35;43.70
60725;BME280;59881;36.722;-4.462;2023-01-15T13:56:40;101586.56;;;19.23;43.95
60725;BME280;59881;36.722;-4.462;2023-01-15T14:02:20;101565.00;;;18.95;44.83
60725;BME280;59881;36.722;-4.462;2023-01-15T14:04:47;101066.19;;;15.91;44.84
60725;BME280;59881;36.722;-4.462;2023-01-15T14:07:35;101573.84;;;19.06;44.79
60725;BME280;59881;36.722;-4.462;2023-01-15T14:12:58;101569.16;;;19.29;44.96
60725;BME280;59881;36.722;-4.462;2023-01-15T14:15:39;101577.00;;;19.30;44.93
60725;BME280;59881;36.722;-4.462;2023-01-15T14:20:54;101569.09;;;19.09;45.47
60725;BME280;59881;36.722;-4.462;2023-01-15T14:23:46;101561.09;;;19.09;45.70
60725;BME280;59881;36.722;-4.462;2023-01-15T14:31:35;101568.50;;;18.96;46.06
60725;BME280;59881;36.722;-4.462;2023-01-15T14:34:22;101669.25;;;18.94;46.52
60725;BME280;59881;36.722;-4.462;2023-01-15T14:36:55;101469.66;;;18.15;46.50